sensor_id;sensor_type;location;lat;lon;timestamp;P1;durP1;ratioP1;P2;durP2;ratioP2
43142;SDS011;28750;59.842;17.584;2024-03-22T00:02:08;4.03;;;3.67;;
43142;SDS011;28750;59.842;17.584;2024-03-22T00:04:36;4.05;;;3.70;;
43142;SDS011;28750;59.842;17.584;2024-03-22T00:07:03;4.45;;;3.50;;
43142;SDS011;28750;59.842;17.584;2024-03-22T00:09:30;5.63;;;3.70;;
43142;SDS011;28750;59.842;17.584;2024-03-22T00:11:57;5.53;;;3.80;;
43142;SDS011;28750;59.842;17.584;2024-03-22T00:14:24;4.40;;;4.00;;
43142;SDS011;28750;59.842;17.584;2024-03-22T00:16:50;4.05;;;3.65;;
43142;SDS011;28750;59.842;17.584;2024-03-22T00:19:18;4.40;;;4.00;;
43142;SDS011;28750;59.842;17.584;2024-03-22T00:21:44;3.97;;;3.67;;
43142;SDS011;28750;59.842;17.584;2024-03-22T00:24:11;4.93;;;3.55;;
43142;SDS011;28750;59.842;17.584;2024-03-22T00:26:37;4.93;;;3.75;;
43142;SDS011;28750;59.842;17.584;2024-03-22T00:29:04;4.43;;;4.03;;
43142;SDS011;28750;59.842;17.584;2024-03-22T00:31:30;4.28;;;3.88;;
43142;SDS011;28750;59.842;17.584;2024-03-22T00:33:58;4.57;;;4.05;;
43142;SDS011;28750;59.842;17.584;2024-03-22T00:36:24;4.05;;;3.65;;
43142;SDS011;28750;59.842;17.584;2024-03-22T00:38:51;4.70;;;4.30;;
43142;SDS011;28750;59.842;17.584;2024-03-22T00:41:17;3.80;;;3.50;;
43142;SDS011;28750;59.842;17.584;2024-03-22T00:43:44;4.93;;;4.00;;
43142;SDS011;28750;59.842;17.584;2024-03-22T00:46:11;4.75;;;4.10;;
43142;SDS011;28750;59.842;17.584;2024-03-22T00:48:38;4.60;;;4.20;;
43142;SDS011;28750;59.842;17.584;2024-03-22T00:51:04;5.35;;;4.85;;
43142;SDS011;28750;59.842;17.584;2024-03-22T00:53:31;4.47;;;4.07;;
43142;SDS011;28750;59.842;17.584;2024-03-22T00:55:57;4.05;;;3.65;;
43142;SDS011;28750;59.842;17.584;2024-03-22T00:58:26;6.20;;;5.03;;
43142;SDS011;28750;59.842;17.584;2024-03-22T01:00:53;5.50;;;4.57;;
43142;SDS011;28750;59.842;17.584;2024-03-22T01:03:21;6.00;;;5.40;;
43142;SDS011;28750;59.842;17.584;2024-03-22T01:05:47;6.55;;;4.65;;
43142;SDS011;28750;59.842;17.584;2024-03-22T01:08:15;5.47;;;4.97;;
43142;SDS011;28750;59.842;17.584;2024-03-22T01:10:41;5.43;;;4.45;;
43142;SDS011;28750;59.842;17.584;2024-03-22T01:13:08;5.30;;;4.80;;
43142;SDS011;28750;59.842;17.584;2024-03-22T01:15:34;5.38;;;4.88;;
43142;SDS011;28750;59.842;17.584;2024-03-22T01:18:02;4.97;;;4.30;;
43142;SDS011;28750;59.842;17.584;2024-03-22T01:20:28;5.50;;;5.00;;
43142;SDS011;28750;59.842;17.584;2024-03-22T01:22:55;7.32;;;5.50;;
43142;SDS011;28750;59.842;17.584;2024-03-22T01:25:21;7.15;;;5.15;;
43142;SDS011;28750;59.842;17.584;2024-03-22T01:27:48;6.57;;;5.70;;
43142;SDS011;28750;59.842;17.584;2024-03-22T01:30:14;6.40;;;5.78;;
43142;SDS011;28750;59.842;17.584;2024-03-22T01:32:41;5.90;;;5.30;;
43142;SDS011;28750;59.842;17.584;2024-03-22T01:35:08;5.60;;;5.07;;
43142;SDS011;28750;59.842;17.584;2024-03-22T01:37:35;5.75;;;5.15;;
43142;SDS011;28750;59.842;17.584;2024-03-22T01:40:02;6.13;;;5.20;;
43142;SDS011;28750;59.842;17.584;2024-03-22T01:42:30;6.32;;;5.28;;
43142;SDS011;28750;59.842;17.584;2024-03-22T01:44:56;5.97;;;5.38;;
43142;SDS011;28750;59.842;17.584;2024-03-22T01:47:24;6.20;;;5.60;;
43142;SDS011;28750;59.842;17.584;2024-03-22T01:49:50;7.07;;;5.60;;
43142;SDS011;28750;59.842;17.584;2024-03-22T01:52:20;6.03;;;5.38;;
43142;SDS011;28750;59.842;17.584;2024-03-22T01:54:46;6.88;;;5.72;;
43142;SDS011;28750;59.842;17.584;2024-03-22T01:57:13;7.32;;;5.45;;
43142;SDS011;28750;59.842;17.584;2024-03-22T01:59:39;5.82;;;5.25;;
43142;SDS011;28750;59.842;17.584;2024-03-22T02:02:07;6.38;;;5.25;;
43142;SDS011;28750;59.842;17.584;2024-03-22T02:04:33;6.88;;;5.28;;
43142;SDS011;28750;59.842;17.584;2024-03-22T02:07:01;5.60;;;4.97;;
43142;SDS011;28750;59.842;17.584;2024-03-22T02:09:27;7.25;;;4.90;;
43142;SDS011;28750;59.842;17.584;2024-03-22T02:11:54;5.97;;;5.20;;
43142;SDS011;28750;59.842;17.584;2024-03-22T02:14:20;8.35;;;6.50;;
43142;SDS011;28750;59.842;17.584;2024-03-22T02:16:47;7.05;;;5.93;;
43142;SDS011;28750;59.842;17.584;2024-03-22T02:19:13;5.53;;;5.03;;
43142;SDS011;28750;59.842;17.584;2024-03-22T02:21:40;6.20;;;5.20;;
43142;SDS011;28750;59.842;17.584;2024-03-22T02:24:07;6.32;;;5.57;;
43142;SDS011;28750;59.842;17.584;2024-03-22T02:26:34;7.90;;;5.13;;
43142;SDS011;28750;59.842;17.584;2024-03-22T02:29:00;6.20;;;4.95;;
43142;SDS011;28750;59.842;17.584;2024-03-22T02:31:27;6.32;;;5.00;;
43142;SDS011;28750;59.842;17.584;2024-03-22T02:33:53;5.18;;;4.68;;
43142;SDS011;28750;59.842;17.584;2024-03-22T02:36:20;5.47;;;4.82;;
43142;SDS011;28750;59.842;17.584;2024-03-22T02:38:46;7.97;;;4.28;;
43142;SDS011;28750;59.842;17.584;2024-03-22T02:41:13;6.55;;;5.60;;
43142;SDS011;28750;59.842;17.584;2024-03-22T02:43:40;7.30;;;5.57;;
43142;SDS011;28750;59.842;17.584;2024-03-22T02:46:07;4.38;;;3.95;;
43142;SDS011;28750;59.842;17.584;2024-03-22T02:48:33;4.40;;;4.00;;
43142;SDS011;28750;59.842;17.584;2024-03-22T02:51:00;7.63;;;4.88;;
43142;SDS011;28750;59.842;17.584;2024-03-22T02:53:26;5.75;;;4.63;;
43142;SDS011;28750;59.842;17.584;2024-03-22T02:55:54;5.20;;;4.25;;
43142;SDS011;28750;59.842;17.584;2024-03-22T02:58:20;5.38;;;4.68;;
43142;SDS011;28750;59.842;17.584;2024-03-22T03:00:47;5.55;;;4.38;;
43142;SDS011;28750;59.842;17.584;2024-03-22T03:03:13;5.15;;;4.00;;
43142;SDS011;28750;59.842;17.584;2024-03-22T03:05:41;4.80;;;4.05;;
43142;SDS011;28750;59.842;17.584;2024-03-22T03:08:09;5.80;;;4.47;;
43142;SDS011;28750;59.842;17.584;2024-03-22T03:10:36;4.80;;;3.35;;
43142;SDS011;28750;59.842;17.584;2024-03-22T03:13:02;5.78;;;4.03;;
43142;SDS011;28750;59.842;17.584;2024-03-22T03:15:29;4.35;;;3.95;;
43142;SDS011;28750;59.842;17.584;2024-03-22T03:17:55;3.72;;;3.30;;
43142;SDS011;28750;59.842;17.584;2024-03-22T03:20:23;4.10;;;3.70;;
43142;SDS011;28750;59.842;17.584;2024-03-22T03:22:50;6.78;;;3.13;;
43142;SDS011;28750;59.842;17.584;2024-03-22T03:25:18;5.80;;;3.90;;
43142;SDS011;28750;59.842;17.584;2024-03-22T03:27:44;3.97;;;3.58;;
43142;SDS011;28750;59.842;17.584;2024-03-22T03:30:11;4.10;;;3.67;;
43142;SDS011;28750;59.842;17.584;2024-03-22T03:32:38;3.92;;;3.53;;
43142;SDS011;28750;59.842;17.584;2024-03-22T03:35:05;5.28;;;3.13;;
43142;SDS011;28750;59.842;17.584;2024-03-22T03:37:31;4.13;;;3.58;;
43142;SDS011;28750;59.842;17.584;2024-03-22T03:39:58;5.88;;;3.85;;
43142;SDS011;28750;59.842;17.584;2024-03-22T03:42:25;5.13;;;3.72;;
43142;SDS011;28750;59.842;17.584;2024-03-22T03:44:52;4.32;;;3.58;;
43142;SDS011;28750;59.842;17.584;2024-03-22T03:47:18;4.88;;;3.72;;
43142;SDS011;28750;59.842;17.584;2024-03-22T03:49:45;4.18;;;3.72;;
43142;SDS011;28750;59.842;17.584;2024-03-22T03:52:12;5.20;;;3.83;;
43142;SDS011;28750;59.842;17.584;2024-03-22T03:54:39;5.40;;;4.20;;
43142;SDS011;28750;59.842;17.584;2024-03-22T03:57:05;7.65;;;5.70;;
43142;SDS011;28750;59.842;17.584;2024-03-22T03:59:33;5.05;;;4.55;;
43142;SDS011;28750;59.842;17.584;2024-03-22T04:01:59;4.55;;;3.88;;
43142;SDS011;28750;59.842;17.584;2024-03-22T04:04:26;5.85;;;4.28;;
43142;SDS011;28750;59.842;17.584;2024-03-22T04:06:52;5.38;;;4.28;;
43142;SDS011;28750;59.842;17.584;2024-03-22T04:09:19;6.18;;;4.75;;
43142;SDS011;28750;59.842;17.584;2024-03-22T04:11:45;6.07;;;4.45;;
43142;SDS011;28750;59.842;17.584;2024-03-22T04:14:13;6.25;;;4.50;;
43142;SDS011;28750;59.842;17.584;2024-03-22T04:16:39;7.65;;;5.22;;
43142;SDS011;28750;59.842;17.584;2024-03-22T04:19:06;5.22;;;4.72;;
43142;SDS011;28750;59.842;17.584;2024-03-22T04:21:33;8.40;;;5.28;;
43142;SDS011;28750;59.842;17.584;2024-03-22T04:24:00;6.10;;;5.40;;
43142;SDS011;28750;59.842;17.584;2024-03-22T04:26:27;6.57;;;5.35;;
43142;SDS011;28750;59.842;17.584;2024-03-22T04:28:54;6.45;;;4.60;;
43142;SDS011;28750;59.842;17.584;2024-03-22T04:31:20;10.18;;;5.82;;
43142;SDS011;28750;59.842;17.584;2024-03-22T04:33:47;7.10;;;5.70;;
43142;SDS011;28750;59.842;17.584;2024-03-22T04:36:13;9.35;;;5.93;;
43142;SDS011;28750;59.842;17.584;2024-03-22T04:38:42;8.57;;;5.75;;
43142;SDS011;28750;59.842;17.584;2024-03-22T04:41:09;10.35;;;8.18;;
43142;SDS011;28750;59.842;17.584;2024-03-22T04:43:37;11.40;;;7.18;;
43142;SDS011;28750;59.842;17.584;2024-03-22T04:46:04;7.85;;;5.90;;
43142;SDS011;28750;59.842;17.584;2024-03-22T04:48:30;7.45;;;6.38;;
43142;SDS011;28750;59.842;17.584;2024-03-22T04:50:57;12.27;;;7.88;;
43142;SDS011;28750;59.842;17.584;2024-03-22T04:53:23;10.60;;;6.85;;
43142;SDS011;28750;59.842;17.584;2024-03-22T04:55:51;8.82;;;6.85;;
43142;SDS011;28750;59.842;17.584;2024-03-22T04:58:17;12.75;;;7.65;;
43142;SDS011;28750;59.842;17.584;2024-03-22T05:00:46;10.30;;;7.50;;
43142;SDS011;28750;59.842;17.584;2024-03-22T05:03:21;10.32;;;7.75;;
43142;SDS011;28750;59.842;17.584;2024-03-22T05:05:49;10.05;;;7.25;;
43142;SDS011;28750;59.842;17.584;2024-03-22T05:08:16;10.90;;;7.55;;
43142;SDS011;28750;59.842;17.584;2024-03-22T05:10:43;11.13;;;8.38;;
43142;SDS011;28750;59.842;17.584;2024-03-22T05:13:09;11.07;;;7.80;;
43142;SDS011;28750;59.842;17.584;2024-03-22T05:15:36;11.32;;;7.75;;
43142;SDS011;28750;59.842;17.584;2024-03-22T05:18:02;9.57;;;7.93;;
43142;SDS011;28750;59.842;17.584;2024-03-22T05:20:30;8.63;;;6.88;;
43142;SDS011;28750;59.842;17.584;2024-03-22T05:22:56;10.45;;;8.02;;
43142;SDS011;28750;59.842;17.584;2024-03-22T05:25:23;15.27;;;9.55;;
43142;SDS011;28750;59.842;17.584;2024-03-22T05:27:51;8.35;;;7.10;;
43142;SDS011;28750;59.842;17.584;2024-03-22T05:30:18;9.38;;;7.05;;
43142;SDS011;28750;59.842;17.584;2024-03-22T05:32:44;10.23;;;7.55;;
43142;SDS011;28750;59.842;17.584;2024-03-22T05:35:12;10.70;;;7.55;;
43142;SDS011;28750;59.842;17.584;2024-03-22T05:37:38;10.90;;;7.63;;
43142;SDS011;28750;59.842;17.584;2024-03-22T05:40:05;8.13;;;7.07;;
43142;SDS011;28750;59.842;17.584;2024-03-22T05:42:32;11.48;;;8.00;;
43142;SDS011;28750;59.842;17.584;2024-03-22T05:44:59;10.18;;;7.05;;
43142;SDS011;28750;59.842;17.584;2024-03-22T05:47:25;11.25;;;7.45;;
43142;SDS011;28750;59.842;17.584;2024-03-22T05:49:52;11.07;;;7.95;;
43142;SDS011;28750;59.842;17.584;2024-03-22T05:52:19;12.82;;;8.73;;
43142;SDS011;28750;59.842;17.584;2024-03-22T05:54:46;10.15;;;7.30;;
43142;SDS011;28750;59.842;17.584;2024-03-22T05:57:12;10.73;;;7.65;;
43142;SDS011;28750;59.842;17.584;2024-03-22T05:59:39;10.00;;;7.78;;
43142;SDS011;28750;59.842;17.584;2024-03-22T06:02:06;13.30;;;7.93;;
43142;SDS011;28750;59.842;17.584;2024-03-22T06:04:34;9.23;;;6.70;;
43142;SDS011;28750;59.842;17.584;2024-03-22T06:07:00;11.07;;;7.43;;
43142;SDS011;28750;59.842;17.584;2024-03-22T06:09:29;10.32;;;7.40;;
43142;SDS011;28750;59.842;17.584;2024-03-22T06:12:05;11.90;;;8.32;;
43142;SDS011;28750;59.842;17.584;2024-03-22T06:14:33;10.85;;;8.43;;
43142;SDS011;28750;59.842;17.584;2024-03-22T06:16:59;12.38;;;7.35;;
43142;SDS011;28750;59.842;17.584;2024-03-22T06:19:26;8.20;;;6.57;;
43142;SDS011;28750;59.842;17.584;2024-03-22T06:21:52;11.50;;;8.02;;
43142;SDS011;28750;59.842;17.584;2024-03-22T06:24:19;8.10;;;6.25;;
43142;SDS011;28750;59.842;17.584;2024-03-22T06:26:45;10.27;;;7.05;;
43142;SDS011;28750;59.842;17.584;2024-03-22T06:29:15;10.00;;;7.68;;
43142;SDS011;28750;59.842;17.584;2024-03-22T06:31:42;10.27;;;6.75;;
43142;SDS011;28750;59.842;17.584;2024-03-22T06:34:09;7.85;;;6.57;;
43142;SDS011;28750;59.842;17.584;2024-03-22T06:36:35;9.45;;;6.82;;
43142;SDS011;28750;59.842;17.584;2024-03-22T06:39:02;8.95;;;7.13;;
43142;SDS011;28750;59.842;17.584;2024-03-22T06:41:31;11.88;;;7.28;;
43142;SDS011;28750;59.842;17.584;2024-03-22T06:43:58;9.07;;;7.25;;
43142;SDS011;28750;59.842;17.584;2024-03-22T06:46:24;10.98;;;7.38;;
43142;SDS011;28750;59.842;17.584;2024-03-22T06:48:52;11.38;;;8.95;;
43142;SDS011;28750;59.842;17.584;2024-03-22T06:51:18;10.52;;;7.25;;
43142;SDS011;28750;59.842;17.584;2024-03-22T06:53:45;8.32;;;6.75;;
43142;SDS011;28750;59.842;17.584;2024-03-22T06:56:13;9.05;;;7.32;;
43142;SDS011;28750;59.842;17.584;2024-03-22T06:58:40;8.88;;;7.72;;
43142;SDS011;28750;59.842;17.584;2024-03-22T07:01:06;10.98;;;8.05;;
43142;SDS011;28750;59.842;17.584;2024-03-22T07:03:34;6.68;;;5.85;;
43142;SDS011;28750;59.842;17.584;2024-03-22T07:06:00;7.45;;;5.68;;
43142;SDS011;28750;59.842;17.584;2024-03-22T07:08:27;8.73;;;6.30;;
43142;SDS011;28750;59.842;17.584;2024-03-22T07:10:53;9.60;;;7.57;;
43142;SDS011;28750;59.842;17.584;2024-03-22T07:13:21;9.32;;;6.25;;
43142;SDS011;28750;59.842;17.584;2024-03-22T07:15:47;7.05;;;6.35;;
43142;SDS011;28750;59.842;17.584;2024-03-22T07:18:14;11.00;;;8.02;;
43142;SDS011;28750;59.842;17.584;2024-03-22T07:20:41;8.10;;;6.30;;
43142;SDS011;28750;59.842;17.584;2024-03-22T07:23:08;10.40;;;7.93;;
43142;SDS011;28750;59.842;17.584;2024-03-22T07:25:35;6.53;;;5.88;;
43142;SDS011;28750;59.842;17.584;2024-03-22T07:28:02;7.93;;;6.78;;
43142;SDS011;28750;59.842;17.584;2024-03-22T07:30:28;7.70;;;6.20;;
43142;SDS011;28750;59.842;17.584;2024-03-22T07:32:55;11.27;;;8.30;;
43142;SDS011;28750;59.842;17.584;2024-03-22T07:35:21;9.32;;;7.05;;
43142;SDS011;28750;59.842;17.584;2024-03-22T07:37:50;10.02;;;6.38;;
43142;SDS011;28750;59.842;17.584;2024-03-22T07:40:16;9.27;;;5.93;;
43142;SDS011;28750;59.842;17.584;2024-03-22T07:42:43;8.50;;;6.40;;
43142;SDS011;28750;59.842;17.584;2024-03-22T07:45:09;8.43;;;5.55;;
43142;SDS011;28750;59.842;17.584;2024-03-22T07:47:37;7.25;;;6.00;;
43142;SDS011;28750;59.842;17.584;2024-03-22T07:50:04;7.20;;;5.95;;
43142;SDS011;28750;59.842;17.584;2024-03-22T07:52:31;7.20;;;6.00;;
43142;SDS011;28750;59.842;17.584;2024-03-22T07:54:57;7.13;;;5.35;;
43142;SDS011;28750;59.842;17.584;2024-03-22T07:57:27;6.30;;;5.25;;
43142;SDS011;28750;59.842;17.584;2024-03-22T07:59:53;6.85;;;5.60;;
43142;SDS011;28750;59.842;17.584;2024-03-22T08:02:20;7.97;;;6.78;;
43142;SDS011;28750;59.842;17.584;2024-03-22T08:04:46;7.22;;;5.18;;
43142;SDS011;28750;59.842;17.584;2024-03-22T08:07:14;7.70;;;5.72;;
43142;SDS011;28750;59.842;17.584;2024-03-22T08:09:40;7.10;;;4.60;;
43142;SDS011;28750;59.842;17.584;2024-03-22T08:12:07;8.10;;;5.57;;
43142;SDS011;28750;59.842;17.584;2024-03-22T08:14:33;6.35;;;5.22;;
43142;SDS011;28750;59.842;17.584;2024-03-22T08:17:01;6.55;;;4.95;;
43142;SDS011;28750;59.842;17.584;2024-03-22T08:19:28;5.97;;;4.85;;
43142;SDS011;28750;59.842;17.584;2024-03-22T08:21:55;5.38;;;4.88;;
43142;SDS011;28750;59.842;17.584;2024-03-22T08:24:22;4.70;;;4.13;;
43142;SDS011;28750;59.842;17.584;2024-03-22T08:26:49;4.00;;;3.60;;
43142;SDS011;28750;59.842;17.584;2024-03-22T08:29:15;7.30;;;4.63;;
43142;SDS011;28750;59.842;17.584;2024-03-22T08:31:42;5.43;;;4.53;;
43142;SDS011;28750;59.842;17.584;2024-03-22T08:34:08;7.95;;;4.82;;
43142;SDS011;28750;59.842;17.584;2024-03-22T08:36:36;6.60;;;4.38;;
43142;SDS011;28750;59.842;17.584;2024-03-22T08:39:02;5.85;;;4.88;;
43142;SDS011;28750;59.842;17.584;2024-03-22T08:41:30;5.30;;;4.53;;
43142;SDS011;28750;59.842;17.584;2024-03-22T08:43:56;5.93;;;5.30;;
43142;SDS011;28750;59.842;17.584;2024-03-22T08:46:23;6.65;;;5.13;;
43142;SDS011;28750;59.842;17.584;2024-03-22T08:48:52;8.65;;;6.20;;
43142;SDS011;28750;59.842;17.584;2024-03-22T08:51:19;5.57;;;4.60;;
43142;SDS011;28750;59.842;17.584;2024-03-22T08:53:46;6.57;;;4.45;;
43142;SDS011;28750;59.842;17.584;2024-03-22T08:56:13;6.18;;;5.60;;
43142;SDS011;28750;59.842;17.584;2024-03-22T08:58:39;6.18;;;5.22;;
43142;SDS011;28750;59.842;17.584;2024-03-22T09:01:07;5.20;;;4.43;;
43142;SDS011;28750;59.842;17.584;2024-03-22T09:03:35;8.88;;;5.63;;
43142;SDS011;28750;59.842;17.584;2024-03-22T09:06:04;5.20;;;4.63;;
43142;SDS011;28750;59.842;17.584;2024-03-22T09:08:31;6.38;;;5.28;;
43142;SDS011;28750;59.842;17.584;2024-03-22T09:10:59;8.73;;;4.88;;
43142;SDS011;28750;59.842;17.584;2024-03-22T09:13:25;8.10;;;5.45;;
43142;SDS011;28750;59.842;17.584;2024-03-22T09:15:58;7.22;;;4.97;;
43142;SDS011;28750;59.842;17.584;2024-03-22T09:18:25;6.47;;;5.32;;
43142;SDS011;28750;59.842;17.584;2024-03-22T09:20:53;5.68;;;5.05;;
43142;SDS011;28750;59.842;17.584;2024-03-22T09:23:19;6.30;;;5.63;;
43142;SDS011;28750;59.842;17.584;2024-03-22T09:25:46;8.13;;;5.88;;
43142;SDS011;28750;59.842;17.584;2024-03-22T09:28:13;6.32;;;5.40;;
43142;SDS011;28750;59.842;17.584;2024-03-22T09:30:41;7.55;;;5.75;;
43142;SDS011;28750;59.842;17.584;2024-03-22T09:33:08;8.25;;;7.00;;
43142;SDS011;28750;59.842;17.584;2024-03-22T09:35:36;6.22;;;5.15;;
43142;SDS011;28750;59.842;17.584;2024-03-22T09:38:02;6.95;;;5.82;;
43142;SDS011;28750;59.842;17.584;2024-03-22T09:40:29;7.25;;;5.60;;
43142;SDS011;28750;59.842;17.584;2024-03-22T09:42:57;7.47;;;5.72;;
43142;SDS011;28750;59.842;17.584;2024-03-22T09:45:29;6.13;;;5.22;;
43142;SDS011;28750;59.842;17.584;2024-03-22T09:47:57;8.35;;;7.20;;
43142;SDS011;28750;59.842;17.584;2024-03-22T09:50:25;9.57;;;5.80;;
43142;SDS011;28750;59.842;17.584;2024-03-22T09:52:52;8.77;;;7.40;;
43142;SDS011;28750;59.842;17.584;2024-03-22T09:55:23;7.88;;;6.38;;
43142;SDS011;28750;59.842;17.584;2024-03-22T09:57:50;9.00;;;7.00;;
43142;SDS011;28750;59.842;17.584;2024-03-22T10:00:19;10.07;;;6.35;;
43142;SDS011;28750;59.842;17.584;2024-03-22T10:02:47;7.65;;;5.57;;
43142;SDS011;28750;59.842;17.584;2024-03-22T10:05:16;7.30;;;6.00;;
43142;SDS011;28750;59.842;17.584;2024-03-22T10:07:45;8.93;;;6.10;;
43142;SDS011;28750;59.842;17.584;2024-03-22T10:10:12;9.40;;;6.03;;
43142;SDS011;28750;59.842;17.584;2024-03-22T10:12:40;10.07;;;6.72;;
43142;SDS011;28750;59.842;17.584;2024-03-22T10:15:08;7.47;;;5.95;;
43142;SDS011;28750;59.842;17.584;2024-03-22T10:17:34;9.70;;;6.03;;
43142;SDS011;28750;59.842;17.584;2024-03-22T10:20:02;7.95;;;6.30;;
43142;SDS011;28750;59.842;17.584;2024-03-22T10:22:29;9.40;;;5.97;;
43142;SDS011;28750;59.842;17.584;2024-03-22T10:24:56;6.05;;;4.82;;
43142;SDS011;28750;59.842;17.584;2024-03-22T10:27:26;7.38;;;5.78;;
43142;SDS011;28750;59.842;17.584;2024-03-22T10:29:55;5.68;;;4.38;;
43142;SDS011;28750;59.842;17.584;2024-03-22T10:32:22;7.25;;;5.88;;
43142;SDS011;28750;59.842;17.584;2024-03-22T10:34:50;7.55;;;5.45;;
43142;SDS011;28750;59.842;17.584;2024-03-22T10:37:16;4.85;;;4.15;;
43142;SDS011;28750;59.842;17.584;2024-03-22T10:39:44;7.35;;;4.78;;
43142;SDS011;28750;59.842;17.584;2024-03-22T10:42:13;5.93;;;5.07;;
43142;SDS011;28750;59.842;17.584;2024-03-22T10:44:41;5.80;;;4.25;;
43142;SDS011;28750;59.842;17.584;2024-03-22T10:47:08;5.50;;;4.88;;
43142;SDS011;28750;59.842;17.584;2024-03-22T10:49:37;7.80;;;5.32;;
43142;SDS011;28750;59.842;17.584;2024-03-22T10:52:04;5.95;;;5.28;;
43142;SDS011;28750;59.842;17.584;2024-03-22T10:54:35;5.38;;;4.68;;
43142;SDS011;28750;59.842;17.584;2024-03-22T10:57:05;6.67;;;5.97;;
43142;SDS011;28750;59.842;17.584;2024-03-22T10:59:36;5.63;;;4.70;;
43142;SDS011;28750;59.842;17.584;2024-03-22T11:02:03;5.57;;;4.93;;
43142;SDS011;28750;59.842;17.584;2024-03-22T11:04:32;5.30;;;4.15;;
43142;SDS011;28750;59.842;17.584;2024-03-22T11:06:59;4.60;;;4.20;;
43142;SDS011;28750;59.842;17.584;2024-03-22T11:09:28;4.68;;;4.18;;
43142;SDS011;28750;59.842;17.584;2024-03-22T11:11:55;5.40;;;4.15;;
43142;SDS011;28750;59.842;17.584;2024-03-22T11:14:24;5.25;;;4.75;;
43142;SDS011;28750;59.842;17.584;2024-03-22T11:16:50;4.60;;;4.15;;
43142;SDS011;28750;59.842;17.584;2024-03-22T11:19:18;4.57;;;4.18;;
43142;SDS011;28750;59.842;17.584;2024-03-22T11:21:44;3.83;;;3.30;;
43142;SDS011;28750;59.842;17.584;2024-03-22T11:24:11;3.85;;;3.45;;
43142;SDS011;28750;59.842;17.584;2024-03-22T11:26:37;4.28;;;3.70;;
43142;SDS011;28750;59.842;17.584;2024-03-22T11:29:04;3.83;;;3.40;;
43142;SDS011;28750;59.842;17.584;2024-03-22T11:31:31;3.42;;;3.17;;
43142;SDS011;28750;59.842;17.584;2024-03-22T11:33:58;3.78;;;3.47;;
43142;SDS011;28750;59.842;17.584;2024-03-22T11:36:25;4.70;;;3.30;;
43142;SDS011;28750;59.842;17.584;2024-03-22T11:38:52;4.38;;;3.80;;
43142;SDS011;28750;59.842;17.584;2024-03-22T11:41:21;3.60;;;2.78;;
43142;SDS011;28750;59.842;17.584;2024-03-22T11:43:52;3.17;;;2.88;;
43142;SDS011;28750;59.842;17.584;2024-03-22T11:46:19;3.67;;;3.38;;
43142;SDS011;28750;59.842;17.584;2024-03-22T11:48:51;2.72;;;2.53;;
43142;SDS011;28750;59.842;17.584;2024-03-22T11:51:18;2.83;;;2.50;;
43142;SDS011;28750;59.842;17.584;2024-03-22T11:53:49;2.55;;;2.38;;
43142;SDS011;28750;59.842;17.584;2024-03-22T11:56:19;3.10;;;2.90;;
43142;SDS011;28750;59.842;17.584;2024-03-22T11:58:47;2.50;;;2.30;;
43142;SDS011;28750;59.842;17.584;2024-03-22T12:01:16;2.95;;;2.60;;
43142;SDS011;28750;59.842;17.584;2024-03-22T12:03:45;2.50;;;2.30;;
43142;SDS011;28750;59.842;17.584;2024-03-22T12:06:12;2.47;;;2.28;;
43142;SDS011;28750;59.842;17.584;2024-03-22T12:08:41;2.95;;;2.35;;
43142;SDS011;28750;59.842;17.584;2024-03-22T12:11:08;2.67;;;2.00;;
43142;SDS011;28750;59.842;17.584;2024-03-22T12:13:38;2.00;;;1.90;;
43142;SDS011;28750;59.842;17.584;2024-03-22T12:16:04;2.75;;;2.55;;
43142;SDS011;28750;59.842;17.584;2024-03-22T12:18:32;2.35;;;2.22;;
43142;SDS011;28750;59.842;17.584;2024-03-22T12:20:59;2.85;;;2.63;;
43142;SDS011;28750;59.842;17.584;2024-03-22T12:23:27;2.60;;;2.40;;
43142;SDS011;28750;59.842;17.584;2024-03-22T12:25:53;2.58;;;2.28;;
43142;SDS011;28750;59.842;17.584;2024-03-22T12:28:21;2.40;;;2.20;;
43142;SDS011;28750;59.842;17.584;2024-03-22T12:30:48;3.95;;;2.00;;
43142;SDS011;28750;59.842;17.584;2024-03-22T12:33:20;3.80;;;2.35;;
43142;SDS011;28750;59.842;17.584;2024-03-22T12:35:46;2.40;;;1.83;;
43142;SDS011;28750;59.842;17.584;2024-03-22T12:38:14;3.00;;;2.15;;
43142;SDS011;28750;59.842;17.584;2024-03-22T12:40:41;1.70;;;1.60;;
43142;SDS011;28750;59.842;17.584;2024-03-22T12:43:09;1.60;;;1.50;;
43142;SDS011;28750;59.842;17.584;2024-03-22T12:45:35;1.30;;;1.23;;
43142;SDS011;28750;59.842;17.584;2024-03-22T12:48:03;1.80;;;1.65;;
43142;SDS011;28750;59.842;17.584;2024-03-22T12:50:30;1.77;;;1.38;;
43142;SDS011;28750;59.842;17.584;2024-03-22T12:52:58;2.42;;;1.20;;
43142;SDS011;28750;59.842;17.584;2024-03-22T12:55:24;2.67;;;1.50;;
43142;SDS011;28750;59.842;17.584;2024-03-22T12:57:53;2.13;;;1.30;;
43142;SDS011;28750;59.842;17.584;2024-03-22T13:00:20;1.65;;;1.15;;
43142;SDS011;28750;59.842;17.584;2024-03-22T13:02:47;1.77;;;1.45;;
43142;SDS011;28750;59.842;17.584;2024-03-22T13:05:13;3.80;;;1.65;;
43142;SDS011;28750;59.842;17.584;2024-03-22T13:07:41;1.42;;;1.20;;
43142;SDS011;28750;59.842;17.584;2024-03-22T13:10:08;3.80;;;1.30;;
43142;SDS011;28750;59.842;17.584;2024-03-22T13:12:35;2.17;;;1.13;;
43142;SDS011;28750;59.842;17.584;2024-03-22T13:15:02;1.33;;;1.00;;
43142;SDS011;28750;59.842;17.584;2024-03-22T13:17:31;1.83;;;1.17;;
43142;SDS011;28750;59.842;17.584;2024-03-22T13:19:57;1.85;;;1.15;;
43142;SDS011;28750;59.842;17.584;2024-03-22T13:22:25;3.60;;;1.10;;
43142;SDS011;28750;59.842;17.584;2024-03-22T13:24:51;2.47;;;1.40;;
43142;SDS011;28750;59.842;17.584;2024-03-22T13:27:18;3.80;;;1.45;;
43142;SDS011;28750;59.842;17.584;2024-03-22T13:29:47;2.10;;;0.95;;
43142;SDS011;28750;59.842;17.584;2024-03-22T13:32:15;2.13;;;1.25;;
43142;SDS011;28750;59.842;17.584;2024-03-22T13:34:41;1.92;;;1.40;;
43142;SDS011;28750;59.842;17.584;2024-03-22T13:37:08;2.35;;;1.20;;
43142;SDS011;28750;59.842;17.584;2024-03-22T13:39:35;1.52;;;1.40;;
43142;SDS011;28750;59.842;17.584;2024-03-22T13:42:02;1.85;;;1.60;;
43142;SDS011;28750;59.842;17.584;2024-03-22T13:44:28;3.20;;;1.85;;
43142;SDS011;28750;59.842;17.584;2024-03-22T13:46:58;3.10;;;1.73;;
43142;SDS011;28750;59.842;17.584;2024-03-22T13:49:24;4.45;;;2.10;;
43142;SDS011;28750;59.842;17.584;2024-03-22T13:51:52;2.78;;;2.10;;
43142;SDS011;28750;59.842;17.584;2024-03-22T13:54:18;3.28;;;2.15;;
43142;SDS011;28750;59.842;17.584;2024-03-22T13:56:45;2.60;;;1.65;;
43142;SDS011;28750;59.842;17.584;2024-03-22T13:59:11;6.00;;;2.47;;
43142;SDS011;28750;59.842;17.584;2024-03-22T14:01:41;3.63;;;1.90;;
43142;SDS011;28750;59.842;17.584;2024-03-22T14:04:10;6.50;;;1.50;;
43142;SDS011;28750;59.842;17.584;2024-03-22T14:06:38;4.50;;;1.63;;
43142;SDS011;28750;59.842;17.584;2024-03-22T14:09:04;6.45;;;1.75;;
43142;SDS011;28750;59.842;17.584;2024-03-22T14:11:35;3.67;;;1.60;;
43142;SDS011;28750;59.842;17.584;2024-03-22T14:14:01;4.85;;;1.60;;
43142;SDS011;28750;59.842;17.584;2024-03-22T14:16:28;4.10;;;2.00;;
43142;SDS011;28750;59.842;17.584;2024-03-22T14:18:55;2.25;;;1.42;;
43142;SDS011;28750;59.842;17.584;2024-03-22T14:21:22;2.55;;;1.65;;
43142;SDS011;28750;59.842;17.584;2024-03-22T14:23:49;5.85;;;1.85;;
43142;SDS011;28750;59.842;17.584;2024-03-22T14:26:17;3.30;;;1.50;;
43142;SDS011;28750;59.842;17.584;2024-03-22T14:28:44;2.03;;;1.38;;
43142;SDS011;28750;59.842;17.584;2024-03-22T14:31:12;3.00;;;1.73;;
43142;SDS011;28750;59.842;17.584;2024-03-22T14:33:39;3.33;;;1.70;;